Terminal Aerodrome Forecast
Issued by NWS Quad Cities IA IL

Home | Current Version | Previous Version | Text Only | Print | Product List | Glossary On
Versions: 1 2 3 4 5 6 7 8 9 10 11 12 13 14 15 16 17 18 19 20 21 22 23 24 25 26 27 28 29 30
000
FTUS43 KDVN 220700 AAA
TAFDBQ
TAF AMD
KDBQ 220732Z 2208/2306 16012KT 5SM BR SCT015 OVC050
      TEMPO 2208/2212 6SM -RADZ BR OVC015
     FM221200 14011KT P6SM VCSH OVC015
     FM221400 10010KT 1 1/2SM -RADZ BR BKN007 OVC012=

USA.gov is the U.S. government's official web portal to all federal, state and local government web resources and services.